sensor_id;sensor_type;location;lat;lon;timestamp;P1;durP1;ratioP1;P2;durP2;ratioP2
13090;SDS011;6611;52.604;13.438;2023-03-01T00:04:38;11.47;;;5.27;;
13090;SDS011;6611;52.604;13.438;2023-03-01T00:09:40;6.83;;;4.57;;
13090;SDS011;6611;52.604;13.438;2023-03-01T00:14:42;7.03;;;4.20;;
13090;SDS011;6611;52.604;13.438;2023-03-01T00:19:45;9.17;;;4.30;;
13090;SDS011;6611;52.604;13.438;2023-03-01T00:24:46;8.03;;;4.10;;
13090;SDS011;6611;52.604;13.438;2023-03-01T00:29:48;8.20;;;4.33;;
13090;SDS011;6611;52.604;13.438;2023-03-01T00:34:51;5.87;;;3.67;;
13090;SDS011;6611;52.604;13.438;2023-03-01T00:39:56;6.03;;;3.70;;
13090;SDS011;6611;52.604;13.438;2023-03-01T00:44:57;6.77;;;3.60;;
13090;SDS011;6611;52.604;13.438;2023-03-01T00:50:01;5.07;;;3.07;;
13090;SDS011;6611;52.604;13.438;2023-03-01T00:55:02;4.17;;;2.57;;
13090;SDS011;6611;52.604;13.438;2023-03-01T01:00:06;4.37;;;3.00;;
13090;SDS011;6611;52.604;13.438;2023-03-01T01:05:11;4.03;;;2.33;;
13090;SDS011;6611;52.604;13.438;2023-03-01T01:10:13;4.30;;;3.00;;
13090;SDS011;6611;52.604;13.438;2023-03-01T01:15:17;3.47;;;2.67;;
13090;SDS011;6611;52.604;13.438;2023-03-01T01:20:20;2.93;;;2.53;;
13090;SDS011;6611;52.604;13.438;2023-03-01T01:25:22;3.83;;;2.73;;
13090;SDS011;6611;52.604;13.438;2023-03-01T01:30:25;5.43;;;2.77;;
13090;SDS011;6611;52.604;13.438;2023-03-01T01:35:28;4.60;;;3.30;;
13090;SDS011;6611;52.604;13.438;2023-03-01T01:40:30;5.07;;;2.90;;
13090;SDS011;6611;52.604;13.438;2023-03-01T01:45:32;3.80;;;3.17;;
13090;SDS011;6611;52.604;13.438;2023-03-01T01:50:36;3.87;;;2.63;;
13090;SDS011;6611;52.604;13.438;2023-03-01T01:55:42;4.97;;;2.67;;
13090;SDS011;6611;52.604;13.438;2023-03-01T02:00:46;3.67;;;2.67;;
13090;SDS011;6611;52.604;13.438;2023-03-01T02:05:51;4.30;;;2.60;;
13090;SDS011;6611;52.604;13.438;2023-03-01T02:10:58;4.30;;;3.07;;
13090;SDS011;6611;52.604;13.438;2023-03-01T02:16:02;5.33;;;2.97;;
13090;SDS011;6611;52.604;13.438;2023-03-01T02:21:19;3.77;;;2.87;;
13090;SDS011;6611;52.604;13.438;2023-03-01T02:26:34;3.67;;;2.63;;
13090;SDS011;6611;52.604;13.438;2023-03-01T02:31:43;7.77;;;4.70;;
13090;SDS011;6611;52.604;13.438;2023-03-01T02:36:45;10.97;;;6.10;;
13090;SDS011;6611;52.604;13.438;2023-03-01T02:41:50;7.80;;;4.77;;
13090;SDS011;6611;52.604;13.438;2023-03-01T02:46:55;7.67;;;4.73;;
13090;SDS011;6611;52.604;13.438;2023-03-01T02:52:06;6.83;;;4.80;;
13090;SDS011;6611;52.604;13.438;2023-03-01T02:57:17;7.43;;;3.93;;
13090;SDS011;6611;52.604;13.438;2023-03-01T03:02:24;5.80;;;3.93;;
13090;SDS011;6611;52.604;13.438;2023-03-01T03:07:37;5.70;;;3.50;;
13090;SDS011;6611;52.604;13.438;2023-03-01T03:12:41;9.10;;;4.10;;
13090;SDS011;6611;52.604;13.438;2023-03-01T03:17:44;6.77;;;4.17;;
13090;SDS011;6611;52.604;13.438;2023-03-01T03:22:46;4.47;;;3.47;;
13090;SDS011;6611;52.604;13.438;2023-03-01T03:27:50;5.50;;;3.47;;
13090;SDS011;6611;52.604;13.438;2023-03-01T03:32:58;5.17;;;3.63;;
13090;SDS011;6611;52.604;13.438;2023-03-01T03:38:01;6.73;;;3.37;;
13090;SDS011;6611;52.604;13.438;2023-03-01T03:43:07;4.50;;;3.50;;
13090;SDS011;6611;52.604;13.438;2023-03-01T03:48:12;5.70;;;3.60;;
13090;SDS011;6611;52.604;13.438;2023-03-01T03:53:14;6.43;;;3.20;;
13090;SDS011;6611;52.604;13.438;2023-03-01T03:58:17;6.07;;;3.50;;
13090;SDS011;6611;52.604;13.438;2023-03-01T04:03:22;4.07;;;3.07;;
13090;SDS011;6611;52.604;13.438;2023-03-01T04:08:25;5.50;;;3.70;;
13090;SDS011;6611;52.604;13.438;2023-03-01T04:13:27;6.00;;;3.13;;
13090;SDS011;6611;52.604;13.438;2023-03-01T04:18:31;6.47;;;3.63;;
13090;SDS011;6611;52.604;13.438;2023-03-01T04:23:32;6.57;;;3.83;;
13090;SDS011;6611;52.604;13.438;2023-03-01T04:28:36;5.17;;;3.10;;
13090;SDS011;6611;52.604;13.438;2023-03-01T04:33:41;5.70;;;3.43;;
13090;SDS011;6611;52.604;13.438;2023-03-01T04:38:44;4.60;;;3.10;;
13090;SDS011;6611;52.604;13.438;2023-03-01T04:43:47;5.30;;;3.43;;
13090;SDS011;6611;52.604;13.438;2023-03-01T04:48:50;4.60;;;3.63;;
13090;SDS011;6611;52.604;13.438;2023-03-01T04:53:52;7.03;;;3.97;;
13090;SDS011;6611;52.604;13.438;2023-03-01T04:58:54;5.23;;;3.57;;
13090;SDS011;6611;52.604;13.438;2023-03-01T05:03:57;4.90;;;3.50;;
13090;SDS011;6611;52.604;13.438;2023-03-01T05:09:02;5.07;;;4.57;;
13090;SDS011;6611;52.604;13.438;2023-03-01T05:14:05;6.17;;;3.40;;
13090;SDS011;6611;52.604;13.438;2023-03-01T05:19:09;8.73;;;3.90;;
13090;SDS011;6611;52.604;13.438;2023-03-01T05:24:15;4.93;;;3.40;;
13090;SDS011;6611;52.604;13.438;2023-03-01T05:29:17;6.63;;;3.93;;
13090;SDS011;6611;52.604;13.438;2023-03-01T05:34:26;4.73;;;3.27;;
13090;SDS011;6611;52.604;13.438;2023-03-01T05:39:30;6.97;;;3.37;;
13090;SDS011;6611;52.604;13.438;2023-03-01T05:44:32;4.07;;;3.37;;
13090;SDS011;6611;52.604;13.438;2023-03-01T05:49:35;6.80;;;4.00;;
13090;SDS011;6611;52.604;13.438;2023-03-01T05:54:37;6.83;;;3.93;;
13090;SDS011;6611;52.604;13.438;2023-03-01T05:59:39;10.20;;;4.70;;
13090;SDS011;6611;52.604;13.438;2023-03-01T06:04:42;7.97;;;4.17;;
13090;SDS011;6611;52.604;13.438;2023-03-01T06:09:43;5.80;;;3.70;;
13090;SDS011;6611;52.604;13.438;2023-03-01T06:14:45;5.77;;;3.33;;
13090;SDS011;6611;52.604;13.438;2023-03-01T06:19:49;7.00;;;4.07;;
13090;SDS011;6611;52.604;13.438;2023-03-01T06:24:51;8.87;;;5.10;;
13090;SDS011;6611;52.604;13.438;2023-03-01T06:29:53;5.50;;;3.80;;
13090;SDS011;6611;52.604;13.438;2023-03-01T06:34:56;5.50;;;3.97;;
13090;SDS011;6611;52.604;13.438;2023-03-01T06:39:58;7.30;;;4.70;;
13090;SDS011;6611;52.604;13.438;2023-03-01T06:45:04;6.83;;;4.20;;
13090;SDS011;6611;52.604;13.438;2023-03-01T06:50:08;10.07;;;4.93;;
13090;SDS011;6611;52.604;13.438;2023-03-01T06:55:11;8.60;;;5.63;;
13090;SDS011;6611;52.604;13.438;2023-03-01T07:00:14;10.90;;;7.67;;
13090;SDS011;6611;52.604;13.438;2023-03-01T07:05:18;11.30;;;8.20;;
13090;SDS011;6611;52.604;13.438;2023-03-01T07:10:19;13.70;;;7.57;;
13090;SDS011;6611;52.604;13.438;2023-03-01T07:15:21;11.80;;;7.50;;
13090;SDS011;6611;52.604;13.438;2023-03-01T07:20:24;7.40;;;5.53;;
13090;SDS011;6611;52.604;13.438;2023-03-01T07:25:26;8.23;;;5.43;;
13090;SDS011;6611;52.604;13.438;2023-03-01T07:30:28;10.53;;;5.60;;
13090;SDS011;6611;52.604;13.438;2023-03-01T07:35:31;8.27;;;5.83;;
13090;SDS011;6611;52.604;13.438;2023-03-01T07:40:33;8.53;;;5.60;;
13090;SDS011;6611;52.604;13.438;2023-03-01T07:45:35;12.77;;;6.73;;
13090;SDS011;6611;52.604;13.438;2023-03-01T07:50:38;10.10;;;5.73;;
13090;SDS011;6611;52.604;13.438;2023-03-01T07:55:40;8.80;;;5.13;;
13090;SDS011;6611;52.604;13.438;2023-03-01T08:00:41;8.57;;;5.47;;
13090;SDS011;6611;52.604;13.438;2023-03-01T08:05:44;9.10;;;5.27;;
13090;SDS011;6611;52.604;13.438;2023-03-01T08:10:46;9.57;;;5.40;;
13090;SDS011;6611;52.604;13.438;2023-03-01T08:15:51;8.03;;;5.03;;
13090;SDS011;6611;52.604;13.438;2023-03-01T08:20:54;6.73;;;4.40;;
13090;SDS011;6611;52.604;13.438;2023-03-01T08:26:02;7.73;;;4.47;;
13090;SDS011;6611;52.604;13.438;2023-03-01T08:31:13;6.23;;;4.30;;
13090;SDS011;6611;52.604;13.438;2023-03-01T08:36:17;6.80;;;4.10;;
13090;SDS011;6611;52.604;13.438;2023-03-01T08:41:21;6.93;;;4.27;;
13090;SDS011;6611;52.604;13.438;2023-03-01T08:46:22;8.80;;;4.23;;
13090;SDS011;6611;52.604;13.438;2023-03-01T08:51:25;4.07;;;2.90;;
13090;SDS011;6611;52.604;13.438;2023-03-01T08:56:30;5.37;;;3.03;;
13090;SDS011;6611;52.604;13.438;2023-03-01T09:01:31;4.77;;;2.73;;
13090;SDS011;6611;52.604;13.438;2023-03-01T09:11:37;5.47;;;2.60;;
13090;SDS011;6611;52.604;13.438;2023-03-01T09:16:39;4.77;;;2.63;;
13090;SDS011;6611;52.604;13.438;2023-03-01T09:21:42;4.50;;;2.20;;
13090;SDS011;6611;52.604;13.438;2023-03-01T09:26:54;2.90;;;2.23;;
13090;SDS011;6611;52.604;13.438;2023-03-01T09:31:57;4.40;;;1.80;;
13090;SDS011;6611;52.604;13.438;2023-03-01T09:37:00;2.27;;;1.60;;
13090;SDS011;6611;52.604;13.438;2023-03-01T09:42:02;2.13;;;1.43;;
13090;SDS011;6611;52.604;13.438;2023-03-01T09:47:04;2.10;;;1.70;;
13090;SDS011;6611;52.604;13.438;2023-03-01T09:52:11;4.23;;;2.00;;
13090;SDS011;6611;52.604;13.438;2023-03-01T09:57:24;3.73;;;2.23;;
13090;SDS011;6611;52.604;13.438;2023-03-01T10:02:31;2.87;;;1.80;;
13090;SDS011;6611;52.604;13.438;2023-03-01T10:07:42;2.03;;;1.67;;
13090;SDS011;6611;52.604;13.438;2023-03-01T10:12:49;3.60;;;1.37;;
13090;SDS011;6611;52.604;13.438;2023-03-01T10:17:55;2.30;;;1.47;;
13090;SDS011;6611;52.604;13.438;2023-03-01T10:23:04;2.47;;;1.37;;
13090;SDS011;6611;52.604;13.438;2023-03-01T10:28:10;3.90;;;1.73;;
13090;SDS011;6611;52.604;13.438;2023-03-01T10:33:19;3.20;;;1.47;;
13090;SDS011;6611;52.604;13.438;2023-03-01T10:38:24;3.60;;;1.70;;
13090;SDS011;6611;52.604;13.438;2023-03-01T10:43:28;3.00;;;1.23;;
13090;SDS011;6611;52.604;13.438;2023-03-01T10:48:42;1.93;;;1.40;;
13090;SDS011;6611;52.604;13.438;2023-03-01T10:53:48;1.40;;;1.27;;
13090;SDS011;6611;52.604;13.438;2023-03-01T10:58:58;3.73;;;1.70;;
13090;SDS011;6611;52.604;13.438;2023-03-01T11:04:09;2.83;;;1.53;;
13090;SDS011;6611;52.604;13.438;2023-03-01T11:09:15;2.23;;;1.50;;
13090;SDS011;6611;52.604;13.438;2023-03-01T11:14:17;3.03;;;1.53;;
13090;SDS011;6611;52.604;13.438;2023-03-01T11:19:22;2.17;;;1.27;;
13090;SDS011;6611;52.604;13.438;2023-03-01T11:24:27;2.60;;;1.23;;
13090;SDS011;6611;52.604;13.438;2023-03-01T11:29:36;3.93;;;1.50;;
13090;SDS011;6611;52.604;13.438;2023-03-01T11:34:42;3.27;;;1.40;;
13090;SDS011;6611;52.604;13.438;2023-03-01T11:39:52;2.27;;;1.27;;
13090;SDS011;6611;52.604;13.438;2023-03-01T11:44:59;2.17;;;1.73;;
13090;SDS011;6611;52.604;13.438;2023-03-01T11:50:18;1.90;;;1.33;;
13090;SDS011;6611;52.604;13.438;2023-03-01T11:55:34;3.20;;;1.87;;
13090;SDS011;6611;52.604;13.438;2023-03-01T12:00:59;2.33;;;1.70;;
13090;SDS011;6611;52.604;13.438;2023-03-01T12:06:16;2.33;;;1.70;;
13090;SDS011;6611;52.604;13.438;2023-03-01T12:11:43;2.77;;;1.80;;
13090;SDS011;6611;52.604;13.438;2023-03-01T12:22:29;2.40;;;1.17;;
13090;SDS011;6611;52.604;13.438;2023-03-01T12:27:40;1.80;;;0.93;;
13090;SDS011;6611;52.604;13.438;2023-03-01T12:32:57;2.20;;;1.30;;
13090;SDS011;6611;52.604;13.438;2023-03-01T12:38:15;2.83;;;0.80;;
13090;SDS011;6611;52.604;13.438;2023-03-01T12:43:31;2.17;;;1.83;;
13090;SDS011;6611;52.604;13.438;2023-03-01T12:48:42;1.60;;;0.93;;
13090;SDS011;6611;52.604;13.438;2023-03-01T12:53:49;1.70;;;1.33;;
13090;SDS011;6611;52.604;13.438;2023-03-01T12:58:55;0.93;;;0.90;;
13090;SDS011;6611;52.604;13.438;2023-03-01T13:04:06;1.43;;;0.90;;
13090;SDS011;6611;52.604;13.438;2023-03-01T13:09:19;2.03;;;1.10;;
13090;SDS011;6611;52.604;13.438;2023-03-01T13:14:46;2.07;;;0.90;;
13090;SDS011;6611;52.604;13.438;2023-03-01T13:19:55;2.30;;;1.00;;
13090;SDS011;6611;52.604;13.438;2023-03-01T13:25:00;1.80;;;0.90;;
13090;SDS011;6611;52.604;13.438;2023-03-01T13:30:12;3.00;;;1.10;;
13090;SDS011;6611;52.604;13.438;2023-03-01T13:35:43;1.27;;;0.90;;
13090;SDS011;6611;52.604;13.438;2023-03-01T13:40:58;1.37;;;1.00;;
13090;SDS011;6611;52.604;13.438;2023-03-01T13:46:01;1.10;;;1.00;;
13090;SDS011;6611;52.604;13.438;2023-03-01T13:51:10;3.67;;;1.27;;
13090;SDS011;6611;52.604;13.438;2023-03-01T13:56:14;1.63;;;1.10;;
13090;SDS011;6611;52.604;13.438;2023-03-01T14:01:24;2.40;;;1.40;;
13090;SDS011;6611;52.604;13.438;2023-03-01T14:06:28;2.10;;;1.10;;
13090;SDS011;6611;52.604;13.438;2023-03-01T14:17:16;1.57;;;1.00;;
13090;SDS011;6611;52.604;13.438;2023-03-01T14:22:43;1.70;;;1.00;;
13090;SDS011;6611;52.604;13.438;2023-03-01T14:27:50;1.47;;;0.80;;
13090;SDS011;6611;52.604;13.438;2023-03-01T14:32:57;1.83;;;1.17;;
13090;SDS011;6611;52.604;13.438;2023-03-01T14:37:59;1.03;;;0.80;;
13090;SDS011;6611;52.604;13.438;2023-03-01T14:43:04;2.03;;;1.20;;
13090;SDS011;6611;52.604;13.438;2023-03-01T14:48:13;1.33;;;1.00;;
13090;SDS011;6611;52.604;13.438;2023-03-01T14:53:16;1.93;;;0.93;;
13090;SDS011;6611;52.604;13.438;2023-03-01T14:58:21;2.63;;;1.40;;
13090;SDS011;6611;52.604;13.438;2023-03-01T15:03:26;1.33;;;1.10;;
13090;SDS011;6611;52.604;13.438;2023-03-01T15:08:32;1.17;;;0.97;;
13090;SDS011;6611;52.604;13.438;2023-03-01T15:13:35;1.57;;;0.90;;
13090;SDS011;6611;52.604;13.438;2023-03-01T15:18:42;1.57;;;0.87;;
13090;SDS011;6611;52.604;13.438;2023-03-01T15:23:50;1.20;;;1.07;;
13090;SDS011;6611;52.604;13.438;2023-03-01T15:28:54;2.53;;;1.40;;
13090;SDS011;6611;52.604;13.438;2023-03-01T15:34:10;1.20;;;1.10;;
13090;SDS011;6611;52.604;13.438;2023-03-01T15:39:27;3.07;;;1.30;;
13090;SDS011;6611;52.604;13.438;2023-03-01T15:44:38;2.30;;;1.00;;
13090;SDS011;6611;52.604;13.438;2023-03-01T15:49:43;2.87;;;1.40;;
13090;SDS011;6611;52.604;13.438;2023-03-01T15:54:45;4.73;;;2.57;;
13090;SDS011;6611;52.604;13.438;2023-03-01T15:59:46;2.77;;;1.60;;
13090;SDS011;6611;52.604;13.438;2023-03-01T16:04:50;2.23;;;1.90;;
13090;SDS011;6611;52.604;13.438;2023-03-01T16:09:53;2.40;;;1.73;;
13090;SDS011;6611;52.604;13.438;2023-03-01T16:14:55;1.50;;;1.40;;
13090;SDS011;6611;52.604;13.438;2023-03-01T16:19:59;3.67;;;1.57;;
13090;SDS011;6611;52.604;13.438;2023-03-01T16:25:00;2.80;;;1.23;;
13090;SDS011;6611;52.604;13.438;2023-03-01T16:30:03;2.23;;;1.47;;
13090;SDS011;6611;52.604;13.438;2023-03-01T16:35:09;2.90;;;1.67;;
13090;SDS011;6611;52.604;13.438;2023-03-01T16:40:15;3.07;;;1.70;;
13090;SDS011;6611;52.604;13.438;2023-03-01T16:45:19;2.60;;;1.63;;
13090;SDS011;6611;52.604;13.438;2023-03-01T16:50:22;3.07;;;1.77;;
13090;SDS011;6611;52.604;13.438;2023-03-01T16:55:24;2.77;;;1.60;;
13090;SDS011;6611;52.604;13.438;2023-03-01T17:00:26;2.27;;;1.70;;
13090;SDS011;6611;52.604;13.438;2023-03-01T17:05:29;3.43;;;2.33;;
13090;SDS011;6611;52.604;13.438;2023-03-01T17:10:30;3.07;;;1.80;;
13090;SDS011;6611;52.604;13.438;2023-03-01T17:15:34;3.50;;;2.00;;
13090;SDS011;6611;52.604;13.438;2023-03-01T17:20:37;4.77;;;2.60;;
13090;SDS011;6611;52.604;13.438;2023-03-01T17:25:40;3.77;;;2.57;;
13090;SDS011;6611;52.604;13.438;2023-03-01T17:30:44;6.67;;;3.00;;
13090;SDS011;6611;52.604;13.438;2023-03-01T17:35:48;7.53;;;2.83;;
13090;SDS011;6611;52.604;13.438;2023-03-01T17:40:50;3.93;;;2.23;;
13090;SDS011;6611;52.604;13.438;2023-03-01T17:45:52;4.20;;;2.27;;
13090;SDS011;6611;52.604;13.438;2023-03-01T17:50:55;5.50;;;2.83;;
13090;SDS011;6611;52.604;13.438;2023-03-01T17:56:00;4.17;;;2.77;;
13090;SDS011;6611;52.604;13.438;2023-03-01T18:01:09;4.07;;;2.80;;
13090;SDS011;6611;52.604;13.438;2023-03-01T18:06:15;7.07;;;2.90;;
13090;SDS011;6611;52.604;13.438;2023-03-01T18:11:18;3.90;;;2.97;;
13090;SDS011;6611;52.604;13.438;2023-03-01T18:16:21;6.53;;;3.77;;
13090;SDS011;6611;52.604;13.438;2023-03-01T18:21:24;5.43;;;3.73;;
13090;SDS011;6611;52.604;13.438;2023-03-01T18:26:26;7.93;;;4.40;;
13090;SDS011;6611;52.604;13.438;2023-03-01T18:31:28;8.60;;;4.43;;
13090;SDS011;6611;52.604;13.438;2023-03-01T18:36:33;11.73;;;4.60;;
13090;SDS011;6611;52.604;13.438;2023-03-01T18:41:36;7.93;;;3.53;;
13090;SDS011;6611;52.604;13.438;2023-03-01T18:46:37;9.17;;;4.10;;
13090;SDS011;6611;52.604;13.438;2023-03-01T18:51:42;7.07;;;3.47;;
13090;SDS011;6611;52.604;13.438;2023-03-01T18:56:44;9.13;;;4.83;;
13090;SDS011;6611;52.604;13.438;2023-03-01T19:01:46;9.40;;;4.43;;
13090;SDS011;6611;52.604;13.438;2023-03-01T19:06:49;8.47;;;4.93;;
13090;SDS011;6611;52.604;13.438;2023-03-01T19:11:50;11.27;;;5.30;;
13090;SDS011;6611;52.604;13.438;2023-03-01T19:16:52;10.60;;;5.07;;
13090;SDS011;6611;52.604;13.438;2023-03-01T19:21:55;6.93;;;4.83;;
13090;SDS011;6611;52.604;13.438;2023-03-01T19:26:57;12.20;;;6.13;;
13090;SDS011;6611;52.604;13.438;2023-03-01T19:31:59;16.17;;;6.97;;
13090;SDS011;6611;52.604;13.438;2023-03-01T19:37:02;12.37;;;6.70;;
13090;SDS011;6611;52.604;13.438;2023-03-01T19:42:04;12.40;;;7.60;;
13090;SDS011;6611;52.604;13.438;2023-03-01T19:47:05;20.70;;;9.13;;
13090;SDS011;6611;52.604;13.438;2023-03-01T19:52:08;22.87;;;10.03;;
13090;SDS011;6611;52.604;13.438;2023-03-01T19:57:10;18.30;;;10.07;;
13090;SDS011;6611;52.604;13.438;2023-03-01T20:02:12;21.90;;;10.73;;
13090;SDS011;6611;52.604;13.438;2023-03-01T20:07:15;22.40;;;11.43;;
13090;SDS011;6611;52.604;13.438;2023-03-01T20:12:18;22.97;;;11.37;;
13090;SDS011;6611;52.604;13.438;2023-03-01T20:17:19;17.53;;;10.63;;
13090;SDS011;6611;52.604;13.438;2023-03-01T20:22:22;19.07;;;11.07;;
13090;SDS011;6611;52.604;13.438;2023-03-01T20:27:24;20.70;;;10.73;;
13090;SDS011;6611;52.604;13.438;2023-03-01T20:32:26;20.43;;;9.43;;
13090;SDS011;6611;52.604;13.438;2023-03-01T20:37:29;17.17;;;10.13;;
13090;SDS011;6611;52.604;13.438;2023-03-01T20:42:31;18.23;;;9.73;;
13090;SDS011;6611;52.604;13.438;2023-03-01T20:47:33;16.10;;;8.50;;
13090;SDS011;6611;52.604;13.438;2023-03-01T20:52:36;15.40;;;9.47;;
13090;SDS011;6611;52.604;13.438;2023-03-01T20:57:38;21.83;;;8.73;;
13090;SDS011;6611;52.604;13.438;2023-03-01T21:02:40;17.53;;;8.33;;
13090;SDS011;6611;52.604;13.438;2023-03-01T21:07:44;18.40;;;8.30;;
13090;SDS011;6611;52.604;13.438;2023-03-01T21:12:46;15.17;;;8.80;;
13090;SDS011;6611;52.604;13.438;2023-03-01T21:17:48;17.73;;;7.63;;
13090;SDS011;6611;52.604;13.438;2023-03-01T21:22:51;10.40;;;6.33;;
13090;SDS011;6611;52.604;13.438;2023-03-01T21:27:52;14.73;;;6.77;;
13090;SDS011;6611;52.604;13.438;2023-03-01T21:32:54;13.07;;;6.80;;
13090;SDS011;6611;52.604;13.438;2023-03-01T21:37:57;11.80;;;5.80;;
13090;SDS011;6611;52.604;13.438;2023-03-01T21:42:59;9.20;;;5.67;;
13090;SDS011;6611;52.604;13.438;2023-03-01T21:48:00;10.37;;;5.23;;
13090;SDS011;6611;52.604;13.438;2023-03-01T21:53:03;8.80;;;5.47;;
13090;SDS011;6611;52.604;13.438;2023-03-01T21:58:05;7.77;;;5.07;;
13090;SDS011;6611;52.604;13.438;2023-03-01T22:03:07;6.13;;;4.07;;
13090;SDS011;6611;52.604;13.438;2023-03-01T22:08:10;5.47;;;3.77;;
13090;SDS011;6611;52.604;13.438;2023-03-01T22:13:12;6.47;;;3.53;;
13090;SDS011;6611;52.604;13.438;2023-03-01T22:18:14;6.00;;;3.43;;
13090;SDS011;6611;52.604;13.438;2023-03-01T22:23:17;4.07;;;3.50;;
13090;SDS011;6611;52.604;13.438;2023-03-01T22:28:18;3.73;;;2.73;;
13090;SDS011;6611;52.604;13.438;2023-03-01T22:33:20;5.93;;;3.30;;
13090;SDS011;6611;52.604;13.438;2023-03-01T22:38:23;4.13;;;3.00;;
13090;SDS011;6611;52.604;13.438;2023-03-01T22:43:25;3.97;;;3.07;;
13090;SDS011;6611;52.604;13.438;2023-03-01T22:48:28;3.73;;;2.90;;
13090;SDS011;6611;52.604;13.438;2023-03-01T22:53:31;3.97;;;2.40;;
13090;SDS011;6611;52.604;13.438;2023-03-01T22:58:33;3.97;;;2.80;;
13090;SDS011;6611;52.604;13.438;2023-03-01T23:03:35;3.63;;;2.80;;
13090;SDS011;6611;52.604;13.438;2023-03-01T23:08:38;4.13;;;2.57;;
13090;SDS011;6611;52.604;13.438;2023-03-01T23:13:40;4.13;;;2.70;;
13090;SDS011;6611;52.604;13.438;2023-03-01T23:18:42;3.53;;;2.20;;
13090;SDS011;6611;52.604;13.438;2023-03-01T23:23:46;4.23;;;2.60;;
13090;SDS011;6611;52.604;13.438;2023-03-01T23:28:49;3.83;;;2.23;;
13090;SDS011;6611;52.604;13.438;2023-03-01T23:33:51;3.83;;;2.43;;
13090;SDS011;6611;52.604;13.438;2023-03-01T23:38:54;3.00;;;2.20;;
13090;SDS011;6611;52.604;13.438;2023-03-01T23:43:58;3.20;;;2.20;;
13090;SDS011;6611;52.604;13.438;2023-03-01T23:49:01;3.20;;;2.37;;
13090;SDS011;6611;52.604;13.438;2023-03-01T23:54:05;3.97;;;2.30;;
13090;SDS011;6611;52.604;13.438;2023-03-01T23:59:07;4.80;;;2.67;;
